METAR Data
IDs: Format: Raw Decoded Include TAF

Data at: 2255 UTC 02 Aug 2021

ZBAD 022230Z 05003MPS CAVOK 24/20 Q1006 NOSIG